createdAt,value
2018-09-13T00:00:36.241Z,980.51
2018-09-13T00:01:36.174Z,980.49
2018-09-13T00:02:36.095Z,980.49
2018-09-13T00:03:36.028Z,980.47
2018-09-13T00:04:35.948Z,980.47
2018-09-13T00:05:35.874Z,980.50
2018-09-13T00:06:35.799Z,980.48
2018-09-13T00:07:35.735Z,980.53
2018-09-13T00:08:35.650Z,980.51
2018-09-13T00:09:35.577Z,980.54
2018-09-13T00:10:35.502Z,980.55
2018-09-13T00:11:35.437Z,980.51
2018-09-13T00:12:35.356Z,980.53
2018-09-13T00:13:35.283Z,980.54
2018-09-13T00:14:35.218Z,980.53
2018-09-13T00:15:35.137Z,980.52
2018-09-13T00:16:35.063Z,980.49
2018-09-13T00:17:34.988Z,980.54
2018-09-13T00:18:34.914Z,980.49
2018-09-13T00:19:34.837Z,980.50
2018-09-13T00:20:34.770Z,980.50
2018-09-13T00:21:34.699Z,980.47
2018-09-13T00:22:34.612Z,980.46
2018-09-13T00:23:34.539Z,980.46
2018-09-13T00:24:34.474Z,980.48
2018-09-13T00:25:34.391Z,980.47
2018-09-13T00:26:34.317Z,980.42
2018-09-13T00:27:34.242Z,980.40
2018-09-13T00:28:34.175Z,980.37
2018-09-13T00:29:34.091Z,980.35
2018-09-13T00:30:34.020Z,980.31
2018-09-13T00:31:33.950Z,980.27
2018-09-13T00:32:33.869Z,980.25
2018-09-13T00:33:33.799Z,980.23
2018-09-13T00:34:33.721Z,980.24
2018-09-13T00:35:33.648Z,980.24
2018-09-13T00:36:33.572Z,980.23
2018-09-13T00:37:33.499Z,980.25
2018-09-13T00:38:33.425Z,980.24
2018-09-13T00:39:33.399Z,980.23
2018-09-13T00:40:33.279Z,980.22
2018-09-13T00:41:33.201Z,980.23
2018-09-13T00:42:33.127Z,980.22
2018-09-13T00:43:33.053Z,980.22
2018-09-13T00:44:32.978Z,980.21
2018-09-13T00:45:32.902Z,980.23
2018-09-13T00:46:32.831Z,980.20
2018-09-13T00:47:32.754Z,980.17
2018-09-13T00:48:32.683Z,980.20
2018-09-13T00:49:32.611Z,980.14
2018-09-13T00:50:32.532Z,980.16
2018-09-13T00:51:32.460Z,980.14
2018-09-13T00:52:32.386Z,980.14
2018-09-13T00:53:32.307Z,980.15
2018-09-13T00:54:32.233Z,980.16
2018-09-13T00:55:32.160Z,980.17
2018-09-13T00:56:32.083Z,980.15
2018-09-13T00:57:32.025Z,980.17
2018-09-13T00:58:31.949Z,980.20
2018-09-13T00:59:31.863Z,980.19
2018-09-13T01:00:31.787Z,980.20
2018-09-13T01:01:31.713Z,980.20
2018-09-13T01:02:31.639Z,980.21
2018-09-13T01:03:31.571Z,980.22
2018-09-13T01:04:31.494Z,980.22
2018-09-13T01:05:31.415Z,980.19
2018-09-13T01:06:31.345Z,980.19
2018-09-13T01:07:31.267Z,980.21
2018-09-13T01:08:31.192Z,980.20
2018-09-13T01:09:31.116Z,980.21
2018-09-13T01:10:31.049Z,980.20
2018-09-13T01:11:30.970Z,980.19
2018-09-13T01:12:30.901Z,980.18
2018-09-13T01:13:30.831Z,980.17
2018-09-13T01:14:30.744Z,980.15
2018-09-13T01:15:30.675Z,980.11
2018-09-13T01:16:30.596Z,980.16
2018-09-13T01:17:30.524Z,980.13
2018-09-13T01:18:30.446Z,980.11
2018-09-13T01:19:30.374Z,980.14
2018-09-13T01:20:30.300Z,980.12
2018-09-13T01:21:30.227Z,980.11
2018-09-13T01:22:30.152Z,980.08
2018-09-13T01:23:30.075Z,980.11
2018-09-13T01:24:30.001Z,980.09
2018-09-13T01:25:29.926Z,980.11
2018-09-13T01:26:29.853Z,980.08
2018-09-13T01:27:29.778Z,980.05
2018-09-13T01:28:29.706Z,980.05
2018-09-13T01:29:29.629Z,980.04
2018-09-13T01:30:29.556Z,979.99
2018-09-13T01:31:29.483Z,980.00
2018-09-13T01:32:29.405Z,979.97
2018-09-13T01:33:29.333Z,980.00
2018-09-13T01:34:29.255Z,979.95
2018-09-13T01:35:29.183Z,979.92
2018-09-13T01:36:29.107Z,979.91
2018-09-13T01:37:29.035Z,979.89
2018-09-13T01:38:28.958Z,979.93
2018-09-13T01:39:28.888Z,979.93
2018-09-13T01:40:28.808Z,979.96
2018-09-13T01:41:28.735Z,979.92
2018-09-13T01:42:28.664Z,979.94
2018-09-13T01:43:28.584Z,979.95
2018-09-13T01:44:28.509Z,979.97
2018-09-13T01:45:28.434Z,979.98
2018-09-13T01:46:28.361Z,980.00
2018-09-13T01:47:28.287Z,980.00
2018-09-13T01:48:28.212Z,980.01
2018-09-13T01:49:28.138Z,979.99
2018-09-13T01:50:28.064Z,979.99
2018-09-13T01:51:27.988Z,980.01
2018-09-13T01:52:27.915Z,979.99
2018-09-13T01:53:27.839Z,980.05
2018-09-13T01:54:27.765Z,980.03
2018-09-13T01:55:27.689Z,980.06
2018-09-13T01:56:27.622Z,980.06
2018-09-13T01:57:27.541Z,980.07
2018-09-13T01:58:27.465Z,980.07
2018-09-13T01:59:27.391Z,980.12
2018-09-13T02:00:27.315Z,980.16
2018-09-13T02:01:27.244Z,980.24
2018-09-13T02:02:27.168Z,980.33
2018-09-13T02:03:27.115Z,980.35
2018-09-13T02:04:27.016Z,980.36
2018-09-13T02:05:26.942Z,980.37
2018-09-13T02:06:26.870Z,980.37
2018-09-13T02:07:26.794Z,980.46
2018-09-13T02:08:26.717Z,980.50
2018-09-13T02:09:26.645Z,980.52
2018-09-13T02:10:26.567Z,980.44
2018-09-13T02:11:26.496Z,980.40
2018-09-13T02:12:26.417Z,980.45
2018-09-13T02:13:26.344Z,980.52
2018-09-13T02:14:26.277Z,980.49
2018-09-13T02:15:26.195Z,980.47
2018-09-13T02:16:26.117Z,980.44
2018-09-13T02:17:26.044Z,980.47
2018-09-13T02:18:25.969Z,980.42
2018-09-13T02:19:25.896Z,980.36
2018-09-13T02:20:25.818Z,980.26
2018-09-13T02:21:25.743Z,980.25
2018-09-13T02:22:25.669Z,980.22
2018-09-13T02:23:25.595Z,980.21
2018-09-13T02:24:25.519Z,980.22
2018-09-13T02:25:25.443Z,980.23
2018-09-13T02:26:25.374Z,980.31
2018-09-13T02:27:25.295Z,980.31
2018-09-13T02:28:25.219Z,980.27
2018-09-13T02:29:25.146Z,980.29
2018-09-13T02:30:25.075Z,980.30
2018-09-13T02:31:24.995Z,980.26
2018-09-13T02:32:24.920Z,980.28
2018-09-13T02:33:24.844Z,980.28
2018-09-13T02:34:24.770Z,980.30
2018-09-13T02:35:24.704Z,980.31
2018-09-13T02:36:24.619Z,980.29
2018-09-13T02:37:24.553Z,980.33
2018-09-13T02:38:24.471Z,980.39
2018-09-13T02:39:24.397Z,980.41
2018-09-13T02:40:24.323Z,980.37
2018-09-13T02:41:24.252Z,980.41
2018-09-13T02:42:24.173Z,980.39
2018-09-13T02:43:24.097Z,980.35
2018-09-13T02:44:24.023Z,980.39
2018-09-13T02:45:23.951Z,980.33
2018-09-13T02:46:23.873Z,980.31
2018-09-13T02:47:23.797Z,980.28
2018-09-13T02:48:23.724Z,980.32
2018-09-13T02:49:23.648Z,980.27
2018-09-13T02:50:23.573Z,980.23
2018-09-13T02:51:23.497Z,980.19
2018-09-13T02:52:23.420Z,980.17
2018-09-13T02:53:23.348Z,980.18
2018-09-13T02:54:23.277Z,980.16
2018-09-13T02:55:23.198Z,980.17
2018-09-13T02:56:23.121Z,980.12
2018-09-13T02:57:23.047Z,980.06
2018-09-13T02:58:22.973Z,980.06
2018-09-13T02:59:22.899Z,980.01
2018-09-13T03:00:22.822Z,979.99
2018-09-13T03:01:22.747Z,979.96
2018-09-13T03:02:22.673Z,979.92
2018-09-13T03:03:22.598Z,979.94
2018-09-13T03:04:22.527Z,979.91
2018-09-13T03:05:22.450Z,979.88
2018-09-13T03:06:22.375Z,979.87
2018-09-13T03:07:22.300Z,979.86
2018-09-13T03:08:22.262Z,979.87
2018-09-13T03:09:22.150Z,979.90
2018-09-13T03:10:22.076Z,979.89
2018-09-13T03:11:22.000Z,979.90
2018-09-13T03:12:21.927Z,979.88
2018-09-13T03:13:21.851Z,979.92
2018-09-13T03:14:21.776Z,979.93
2018-09-13T03:15:21.702Z,979.87
2018-09-13T03:16:21.634Z,979.92
2018-09-13T03:17:21.555Z,979.95
2018-09-13T03:18:21.479Z,979.93
2018-09-13T03:19:21.406Z,979.91
2018-09-13T03:20:21.329Z,979.95
2018-09-13T03:21:21.258Z,979.96
2018-09-13T03:22:21.185Z,979.95
2018-09-13T03:23:21.108Z,979.96
2018-09-13T03:24:21.028Z,979.97
2018-09-13T03:25:20.957Z,979.93
2018-09-13T03:26:20.884Z,979.95
2018-09-13T03:27:20.807Z,979.93
2018-09-13T03:28:20.731Z,979.92
2018-09-13T03:29:20.658Z,979.89
2018-09-13T03:30:20.589Z,979.86
2018-09-13T03:31:20.529Z,979.88
2018-09-13T03:32:20.436Z,979.85
2018-09-13T03:33:20.357Z,979.85
2018-09-13T03:34:20.285Z,979.84
2018-09-13T03:35:20.211Z,979.81
2018-09-13T03:36:20.138Z,979.74
2018-09-13T03:37:20.062Z,979.76
2018-09-13T03:38:19.984Z,979.74
2018-09-13T03:39:19.913Z,979.75
2018-09-13T03:40:19.835Z,979.73
2018-09-13T03:41:19.765Z,979.76
2018-09-13T03:42:19.687Z,979.76
2018-09-13T03:43:19.614Z,979.79
2018-09-13T03:44:19.537Z,979.78
2018-09-13T03:45:19.475Z,979.79
2018-09-13T03:46:19.390Z,979.74
2018-09-13T03:47:19.315Z,979.76
2018-09-13T03:48:19.239Z,979.75
2018-09-13T03:49:19.164Z,979.75
2018-09-13T03:50:19.094Z,979.72
2018-09-13T03:51:19.017Z,979.72
2018-09-13T03:52:18.941Z,979.71
2018-09-13T03:53:18.866Z,979.74
2018-09-13T03:54:18.792Z,979.72
2018-09-13T03:55:18.719Z,979.73
2018-09-13T03:56:18.643Z,979.71
2018-09-13T03:57:18.567Z,979.72
2018-09-13T03:58:18.494Z,979.73
2018-09-13T03:59:18.465Z,979.75
2018-09-13T04:00:18.344Z,979.76
2018-09-13T04:01:18.272Z,979.75
2018-09-13T04:02:18.196Z,979.78
2018-09-13T04:03:18.156Z,979.78
2018-09-13T04:04:18.048Z,979.79
2018-09-13T04:05:17.976Z,979.77
2018-09-13T04:06:17.899Z,979.75
2018-09-13T04:07:17.830Z,979.75
2018-09-13T04:08:17.750Z,979.72
2018-09-13T04:09:17.678Z,979.75
2018-09-13T04:10:17.599Z,979.75
2018-09-13T04:11:17.525Z,979.72
2018-09-13T04:12:17.452Z,979.70
2018-09-13T04:13:24.546Z,979.70
2018-09-13T04:15:21.241Z,979.70
2018-09-13T04:16:21.122Z,979.67
2018-09-13T04:18:25.028Z,979.65
2018-09-13T04:19:24.951Z,979.68
2018-09-13T04:21:28.840Z,979.64
2018-09-13T04:22:28.704Z,979.65
2018-09-13T04:24:21.488Z,979.63
2018-09-13T04:25:21.366Z,979.65
2018-09-13T04:27:25.180Z,979.59
2018-09-13T04:28:25.111Z,979.61
2018-09-13T04:30:28.962Z,979.59
2018-09-13T04:31:28.840Z,979.58
2018-09-13T04:33:32.664Z,979.60
2018-09-13T04:34:32.584Z,979.62
2018-09-13T04:35:32.605Z,979.57
2018-09-13T04:36:32.433Z,979.59
2018-09-13T04:37:32.358Z,979.58
2018-09-13T04:38:32.286Z,979.60
2018-09-13T04:39:32.210Z,979.59
2018-09-13T04:40:32.134Z,979.57
2018-09-13T04:41:32.059Z,979.52
2018-09-13T04:42:31.987Z,979.53
2018-09-13T04:43:31.913Z,979.52
2018-09-13T04:44:31.836Z,979.56
2018-09-13T04:45:31.762Z,979.56
2018-09-13T04:46:31.687Z,979.58
2018-09-13T04:47:31.613Z,979.60
2018-09-13T04:48:31.542Z,979.61
2018-09-13T04:49:31.463Z,979.63
2018-09-13T04:50:31.391Z,979.65
2018-09-13T04:51:31.325Z,979.68
2018-09-13T04:52:31.242Z,979.71
2018-09-13T04:53:31.166Z,979.73
2018-09-13T04:54:31.095Z,979.75
2018-09-13T04:55:31.023Z,979.76
2018-09-13T04:56:30.944Z,979.76
2018-09-13T04:57:30.869Z,979.81
2018-09-13T04:58:30.797Z,979.79
2018-09-13T04:59:30.719Z,979.80
2018-09-13T05:00:30.655Z,979.83
2018-09-13T05:01:30.591Z,979.78
2018-09-13T05:02:30.505Z,979.78
2018-09-13T05:03:30.422Z,979.78
2018-09-13T05:04:30.358Z,979.75
2018-09-13T05:05:30.276Z,979.76
2018-09-13T05:06:30.206Z,979.79
2018-09-13T05:07:30.127Z,979.84
2018-09-13T05:08:30.051Z,979.91
2018-09-13T05:09:29.975Z,979.96
2018-09-13T05:10:29.900Z,980.00
2018-09-13T05:11:29.827Z,980.05
2018-09-13T05:12:29.770Z,980.07
2018-09-13T05:13:29.679Z,980.12
2018-09-13T05:14:29.602Z,980.18
2018-09-13T05:15:29.527Z,980.25
2018-09-13T05:16:29.456Z,980.30
2018-09-13T05:17:29.378Z,980.32
2018-09-13T05:18:29.307Z,980.40
2018-09-13T05:19:29.229Z,980.30
2018-09-13T05:20:29.165Z,980.35
2018-09-13T05:21:29.080Z,980.30
2018-09-13T05:22:29.004Z,980.29
2018-09-13T05:23:28.931Z,980.30
2018-09-13T05:24:28.868Z,980.25
2018-09-13T05:25:28.782Z,980.23
2018-09-13T05:26:28.708Z,980.22
2018-09-13T05:27:28.634Z,980.26
2018-09-13T05:28:28.556Z,980.25
2018-09-13T05:29:28.485Z,980.24
2018-09-13T05:30:28.410Z,980.25
2018-09-13T05:31:28.346Z,980.28
2018-09-13T05:32:28.258Z,980.26
2018-09-13T05:33:28.186Z,980.24
2018-09-13T05:34:28.111Z,980.21
2018-09-13T05:35:28.033Z,980.17
2018-09-13T05:36:27.969Z,980.15
2018-09-13T05:37:27.883Z,980.17
2018-09-13T05:38:27.810Z,980.20
2018-09-13T05:39:27.734Z,980.13
2018-09-13T05:40:27.663Z,980.10
2018-09-13T05:41:27.595Z,980.12
2018-09-13T05:42:27.512Z,980.12
2018-09-13T05:43:27.436Z,980.14
2018-09-13T05:44:27.374Z,980.17
2018-09-13T05:45:27.285Z,980.18
2018-09-13T05:46:27.228Z,980.23
2018-09-13T05:47:27.138Z,980.23
2018-09-13T05:48:27.063Z,980.25
2018-09-13T05:49:26.988Z,980.24
2018-09-13T05:50:26.915Z,980.20
2018-09-13T05:51:26.881Z,980.20
2018-09-13T05:52:26.768Z,980.19
2018-09-13T05:53:26.693Z,980.22
2018-09-13T05:54:26.625Z,980.19
2018-09-13T05:55:26.542Z,980.20
2018-09-13T05:56:26.470Z,980.22
2018-09-13T05:57:26.397Z,980.24
2018-09-13T05:58:26.318Z,980.24
2018-09-13T05:59:26.248Z,980.27
2018-09-13T06:00:26.173Z,980.31
2018-09-13T06:01:26.105Z,980.32
2018-09-13T06:02:26.022Z,980.30
2018-09-13T06:03:25.947Z,980.35
2018-09-13T06:04:25.881Z,980.37
2018-09-13T06:05:25.799Z,980.33
2018-09-13T06:06:25.724Z,980.35
2018-09-13T06:07:25.650Z,980.35
2018-09-13T06:08:25.576Z,980.35
2018-09-13T06:09:25.516Z,980.36
2018-09-13T06:10:25.432Z,980.36
2018-09-13T06:11:25.353Z,980.38
2018-09-13T06:12:25.292Z,980.39
2018-09-13T06:13:25.259Z,980.36
2018-09-13T06:14:25.136Z,980.34
2018-09-13T06:15:25.058Z,980.30
2018-09-13T06:16:24.985Z,980.27
2018-09-13T06:17:24.909Z,980.24
2018-09-13T06:18:24.833Z,980.21
2018-09-13T06:19:24.761Z,980.23
2018-09-13T06:20:24.690Z,980.23
2018-09-13T06:21:24.612Z,980.27
2018-09-13T06:22:24.541Z,980.26
2018-09-13T06:23:24.465Z,980.29
2018-09-13T06:24:24.404Z,980.30
2018-09-13T06:25:24.316Z,980.33
2018-09-13T06:26:24.265Z,980.28
2018-09-13T06:27:24.169Z,980.32
2018-09-13T06:28:24.096Z,980.30
2018-09-13T06:29:24.062Z,980.32
2018-09-13T06:30:23.949Z,980.32
2018-09-13T06:31:23.875Z,980.34
2018-09-13T06:32:23.801Z,980.34
2018-09-13T06:33:23.726Z,980.32
2018-09-13T06:34:23.659Z,980.35
2018-09-13T06:35:23.585Z,980.31
2018-09-13T06:36:23.546Z,980.30
2018-09-13T06:37:23.432Z,980.36
2018-09-13T06:38:23.383Z,980.39
2018-09-13T06:39:23.288Z,980.39
2018-09-13T06:40:23.217Z,980.35
2018-09-13T06:41:23.151Z,980.36
2018-09-13T06:42:23.116Z,980.36
2018-09-13T06:43:22.995Z,980.35
2018-09-13T06:44:22.917Z,980.38
2018-09-13T06:45:22.848Z,980.36
2018-09-13T06:46:22.774Z,980.41
2018-09-13T06:47:22.702Z,980.38
2018-09-13T06:48:22.628Z,980.40
2018-09-13T06:49:22.553Z,980.43
2018-09-13T06:50:22.478Z,980.42
2018-09-13T06:51:22.403Z,980.46
2018-09-13T06:52:22.358Z,980.42
2018-09-13T06:53:22.257Z,980.45
2018-09-13T06:54:22.183Z,980.44
2018-09-13T06:55:22.119Z,980.41
2018-09-13T06:56:22.038Z,980.40
2018-09-13T06:57:21.965Z,980.39
2018-09-13T06:58:21.891Z,980.37
2018-09-13T06:59:21.852Z,980.38
2018-09-13T07:00:21.747Z,980.32
2018-09-13T07:01:21.670Z,980.33
2018-09-13T07:02:21.628Z,980.30
2018-09-13T07:03:21.526Z,980.28
2018-09-13T07:04:21.469Z,980.26
2018-09-13T07:05:21.402Z,980.23
2018-09-13T07:06:21.304Z,980.20
2018-09-13T07:07:21.233Z,980.17
2018-09-13T07:08:21.156Z,980.19
2018-09-13T07:09:21.087Z,980.22
2018-09-13T07:10:21.010Z,980.18
2018-09-13T07:11:20.937Z,980.20
2018-09-13T07:12:20.868Z,980.20
2018-09-13T07:13:20.792Z,980.29
2018-09-13T07:14:20.717Z,980.34
2018-09-13T07:15:20.644Z,980.40
2018-09-13T07:16:20.575Z,980.37
2018-09-13T07:17:20.499Z,980.32
2018-09-13T07:18:20.423Z,980.35
2018-09-13T07:19:20.355Z,980.34
2018-09-13T07:20:20.279Z,980.32
2018-09-13T07:21:20.206Z,980.30
2018-09-13T07:22:20.130Z,980.33
2018-09-13T07:23:20.059Z,980.30
2018-09-13T07:24:19.991Z,980.31
2018-09-13T07:25:19.910Z,980.32
2018-09-13T07:26:19.841Z,980.37
2018-09-13T07:27:19.765Z,980.36
2018-09-13T07:28:19.689Z,980.36
2018-09-13T07:29:19.671Z,980.38
2018-09-13T07:30:19.542Z,980.36
2018-09-13T07:31:19.469Z,980.36
2018-09-13T07:32:19.405Z,980.35
2018-09-13T07:33:19.323Z,980.36
2018-09-13T07:34:19.249Z,980.31
2018-09-13T07:35:19.187Z,980.42
2018-09-13T07:36:19.105Z,980.48
2018-09-13T07:37:19.029Z,980.51
2018-09-13T07:38:18.958Z,980.52
2018-09-13T07:39:18.882Z,980.51
2018-09-13T07:40:18.813Z,980.50
2018-09-13T07:41:18.740Z,980.48
2018-09-13T07:42:18.701Z,980.47
2018-09-13T07:43:18.588Z,980.49
2018-09-13T07:44:18.517Z,980.48
2018-09-13T07:45:18.445Z,980.53
2018-09-13T07:46:18.368Z,980.49
2018-09-13T07:47:18.303Z,980.48
2018-09-13T07:48:18.227Z,980.45
2018-09-13T07:49:18.172Z,980.46
2018-09-13T07:50:18.076Z,980.47
2018-09-13T07:51:18.035Z,980.51
2018-09-13T07:52:17.930Z,980.53
2018-09-13T07:53:17.854Z,980.54
2018-09-13T07:54:17.886Z,980.57
2018-09-13T07:55:17.714Z,980.60
2018-09-13T07:56:17.695Z,980.57
2018-09-13T07:57:17.560Z,980.57
2018-09-13T07:58:17.488Z,980.57
2018-09-13T07:59:17.414Z,980.51
2018-09-13T08:00:17.342Z,980.47
2018-09-13T08:01:17.273Z,980.45
2018-09-13T08:02:17.198Z,980.47
2018-09-13T08:03:17.121Z,980.43
2018-09-13T08:04:17.047Z,980.43
2018-09-13T08:05:16.972Z,980.44
2018-09-13T08:06:16.899Z,980.42
2018-09-13T08:07:16.828Z,980.42
2018-09-13T08:08:16.762Z,980.42
2018-09-13T08:09:16.682Z,980.42
2018-09-13T08:10:16.614Z,980.42
2018-09-13T08:11:16.558Z,980.39
2018-09-13T08:12:16.593Z,980.43
2018-09-13T08:13:16.392Z,980.42
2018-09-13T08:14:16.314Z,980.38
2018-09-13T08:15:16.237Z,980.41
2018-09-13T08:16:16.163Z,980.41
2018-09-13T08:17:16.092Z,980.43
2018-09-13T08:18:16.022Z,980.45
2018-09-13T08:19:15.941Z,980.47
2018-09-13T08:20:15.872Z,980.47
2018-09-13T08:21:15.811Z,980.49
2018-09-13T08:22:15.724Z,980.50
2018-09-13T08:23:15.648Z,980.52
2018-09-13T08:24:15.584Z,980.53
2018-09-13T08:25:15.501Z,980.55
2018-09-13T08:26:15.425Z,980.51
2018-09-13T08:27:15.413Z,980.53
2018-09-13T08:28:15.281Z,980.54
2018-09-13T08:29:15.206Z,980.53
2018-09-13T08:30:15.133Z,980.54
2018-09-13T08:31:15.060Z,980.56
2018-09-13T08:32:14.988Z,980.58
2018-09-13T08:33:14.957Z,980.56
2018-09-13T08:34:14.837Z,980.54
2018-09-13T08:35:14.794Z,980.52
2018-09-13T08:36:14.695Z,980.55
2018-09-13T08:37:14.617Z,980.53
2018-09-13T08:38:14.546Z,980.56
2018-09-13T08:39:14.470Z,980.58
2018-09-13T08:40:14.411Z,980.58
2018-09-13T08:41:14.327Z,980.58
2018-09-13T08:42:14.260Z,980.51
2018-09-13T08:43:14.264Z,980.51
2018-09-13T08:44:14.102Z,980.45
2018-09-13T08:45:14.028Z,980.48
2018-09-13T08:46:13.955Z,980.44
2018-09-13T08:47:13.881Z,980.44
2018-09-13T08:48:13.808Z,980.53
2018-09-13T08:49:13.733Z,980.55
2018-09-13T08:50:13.661Z,980.61
2018-09-13T08:51:13.589Z,980.59
2018-09-13T08:52:13.601Z,980.62
2018-09-13T08:53:13.450Z,980.65
2018-09-13T08:54:13.367Z,980.67
2018-09-13T08:55:13.316Z,980.68
2018-09-13T08:56:13.220Z,980.71
2018-09-13T08:57:13.146Z,980.68
2018-09-13T08:58:13.073Z,980.64
2018-09-13T08:59:13.003Z,980.69
2018-09-13T09:00:12.927Z,980.71
2018-09-13T09:01:12.864Z,980.69
2018-09-13T09:02:12.778Z,980.64
2018-09-13T09:03:12.706Z,980.68
2018-09-13T09:04:12.634Z,980.67
2018-09-13T09:05:12.559Z,980.78
2018-09-13T09:06:12.491Z,980.82
2018-09-13T09:07:12.414Z,980.79
2018-09-13T09:08:12.340Z,980.78
2018-09-13T09:09:12.265Z,980.76
2018-09-13T09:10:12.191Z,980.66
2018-09-13T09:11:12.121Z,980.58
2018-09-13T09:12:12.074Z,980.54
2018-09-13T09:13:11.970Z,980.50
2018-09-13T09:14:11.898Z,980.45
2018-09-13T09:15:11.827Z,980.45
2018-09-13T09:16:11.751Z,980.46
2018-09-13T09:17:11.677Z,980.46
2018-09-13T09:18:11.604Z,980.45
2018-09-13T09:19:11.531Z,980.48
2018-09-13T09:20:11.456Z,980.51
2018-09-13T09:21:11.385Z,980.61
2018-09-13T09:22:11.316Z,980.70
2018-09-13T09:23:11.255Z,980.81
2018-09-13T09:24:11.230Z,980.86
2018-09-13T09:25:11.103Z,980.82
2018-09-13T09:26:11.017Z,980.80
2018-09-13T09:27:10.942Z,980.74
2018-09-13T09:28:10.873Z,980.68
2018-09-13T09:29:10.837Z,980.69
2018-09-13T09:30:10.722Z,980.69
2018-09-13T09:31:10.662Z,980.65
2018-09-13T09:32:10.577Z,980.66
2018-09-13T09:33:10.502Z,980.68
2018-09-13T09:34:10.428Z,980.69
2018-09-13T09:35:10.443Z,980.76
2018-09-13T09:36:10.282Z,980.80
2018-09-13T09:37:10.210Z,980.82
2018-09-13T09:38:10.136Z,980.82
2018-09-13T09:39:10.062Z,980.78
2018-09-13T09:40:09.988Z,980.72
2018-09-13T09:41:09.915Z,980.76
2018-09-13T09:42:09.841Z,980.74
2018-09-13T09:43:09.769Z,980.74
2018-09-13T09:44:09.716Z,980.68
2018-09-13T09:45:09.621Z,980.71
2018-09-13T09:46:09.550Z,980.67
2018-09-13T09:47:09.473Z,980.67
2018-09-13T09:48:09.412Z,980.67
2018-09-13T09:49:09.329Z,980.68
2018-09-13T09:50:09.312Z,980.69
2018-09-13T09:51:09.185Z,980.69
2018-09-13T09:52:09.129Z,980.68
2018-09-13T09:53:09.032Z,980.63
2018-09-13T09:54:08.965Z,980.59
2018-09-13T09:55:08.888Z,980.58
2018-09-13T09:56:08.869Z,980.59
2018-09-13T09:57:08.743Z,980.55
2018-09-13T09:58:08.668Z,980.57
2018-09-13T09:59:08.598Z,980.57
2018-09-13T10:00:08.524Z,980.60
2018-09-13T10:01:08.450Z,980.62
2018-09-13T10:02:08.375Z,980.63
2018-09-13T10:03:08.338Z,980.57
2018-09-13T10:04:08.231Z,980.60
2018-09-13T10:05:08.157Z,980.57
2018-09-13T10:06:08.086Z,980.57
2018-09-13T10:07:08.014Z,980.56
2018-09-13T10:08:07.940Z,980.50
2018-09-13T10:09:07.966Z,980.50
2018-09-13T10:10:07.798Z,980.52
2018-09-13T10:11:07.721Z,980.51
2018-09-13T10:12:07.650Z,980.53
2018-09-13T10:13:07.579Z,980.54
2018-09-13T10:14:07.505Z,980.52
2018-09-13T10:15:07.498Z,980.52
2018-09-13T10:16:07.377Z,980.50
2018-09-13T10:17:07.288Z,980.49
2018-09-13T10:18:07.224Z,980.49
2018-09-13T10:19:07.152Z,980.45
2018-09-13T10:20:07.073Z,980.50
2018-09-13T10:21:07.001Z,980.48
2018-09-13T10:22:06.932Z,980.45
2018-09-13T10:23:06.857Z,980.43
2018-09-13T10:24:06.788Z,980.43
2018-09-13T10:25:06.715Z,980.41
2018-09-13T10:26:06.644Z,980.39
2018-09-13T10:27:06.665Z,980.42
2018-09-13T10:28:06.498Z,980.43
2018-09-13T10:29:06.478Z,980.41
2018-09-13T10:30:06.365Z,980.42
2018-09-13T10:31:06.298Z,980.44
2018-09-13T10:32:06.217Z,980.45
2018-09-13T10:33:06.140Z,980.46
2018-09-13T10:34:06.069Z,980.47
2018-09-13T10:35:05.998Z,980.49
2018-09-13T10:36:05.929Z,980.50
2018-09-13T10:37:05.856Z,980.49
2018-09-13T10:38:05.782Z,980.48
2018-09-13T10:39:05.715Z,980.47
2018-09-13T10:40:05.643Z,980.43
2018-09-13T10:41:05.568Z,980.40
2018-09-13T10:42:05.496Z,980.41
2018-09-13T10:43:05.426Z,980.38
2018-09-13T10:44:05.362Z,980.41
2018-09-13T10:45:05.284Z,980.45
2018-09-13T10:46:05.209Z,980.39
2018-09-13T10:47:05.139Z,980.41
2018-09-13T10:48:05.128Z,980.38
2018-09-13T10:49:04.995Z,980.36
2018-09-13T10:50:04.924Z,980.39
2018-09-13T10:51:04.858Z,980.38
2018-09-13T10:52:04.791Z,980.38
2018-09-13T10:53:04.797Z,980.40
2018-09-13T10:54:04.641Z,980.42
2018-09-13T10:55:04.568Z,980.45
2018-09-13T10:56:04.495Z,980.40
2018-09-13T10:57:04.428Z,980.42
2018-09-13T10:58:04.352Z,980.40
2018-09-13T10:59:04.312Z,980.44
2018-09-13T11:00:04.212Z,980.41
2018-09-13T11:01:04.150Z,980.38
2018-09-13T11:02:04.070Z,980.35
2018-09-13T11:03:03.998Z,980.33
2018-09-13T11:04:03.957Z,980.37
2018-09-13T11:05:03.880Z,980.37
2018-09-13T11:06:10.961Z,980.32
2018-09-13T11:08:07.684Z,980.35
2018-09-13T11:09:07.558Z,980.40
2018-09-13T11:11:11.438Z,980.33
2018-09-13T11:12:11.343Z,980.36
2018-09-13T11:14:15.210Z,980.38
2018-09-13T11:15:15.091Z,980.36
2018-09-13T11:17:08.387Z,980.39
2018-09-13T11:18:08.297Z,980.36
2018-09-13T11:20:12.114Z,980.33
2018-09-13T11:21:12.033Z,980.28
2018-09-13T11:23:15.919Z,980.25
2018-09-13T11:24:15.797Z,980.25
2018-09-13T11:26:19.686Z,980.20
2018-09-13T11:27:19.571Z,980.22
2018-09-13T11:29:23.451Z,980.28
2018-09-13T11:30:23.360Z,980.26
2018-09-13T11:32:27.654Z,980.17
2018-09-13T11:33:27.582Z,980.22
2018-09-13T11:35:31.474Z,980.23
2018-09-13T11:36:31.354Z,980.23
2018-09-13T11:37:31.287Z,980.19
2018-09-13T11:38:31.224Z,980.19
2018-09-13T11:39:31.158Z,980.17
2018-09-13T11:40:31.291Z,980.16
2018-09-13T11:41:31.023Z,980.19
2018-09-13T11:42:30.965Z,980.18
2018-09-13T11:43:30.894Z,980.11
2018-09-13T11:44:30.833Z,980.15
2018-09-13T11:45:30.769Z,980.16
2018-09-13T11:46:30.705Z,980.22
2018-09-13T11:47:30.649Z,980.16
2018-09-13T11:48:30.579Z,980.13
2018-09-13T11:49:30.519Z,980.13
2018-09-13T11:50:30.459Z,980.17
2018-09-13T11:51:30.397Z,980.13
2018-09-13T11:52:30.338Z,980.13
2018-09-13T11:53:30.276Z,980.11
2018-09-13T11:54:30.218Z,980.03
2018-09-13T11:55:30.156Z,980.08
2018-09-13T11:56:30.097Z,980.07
2018-09-13T11:57:30.038Z,980.08
2018-09-13T11:58:29.983Z,980.09
2018-09-13T11:59:29.919Z,979.98
2018-09-13T12:00:29.861Z,979.93
2018-09-13T12:01:29.799Z,979.91
2018-09-13T12:02:29.742Z,979.93
2018-09-13T12:03:29.683Z,979.93
2018-09-13T12:04:29.622Z,979.90
2018-09-13T12:05:29.564Z,979.86
2018-09-13T12:06:29.502Z,979.91
2018-09-13T12:07:29.441Z,979.90
2018-09-13T12:08:29.382Z,980.01
2018-09-13T12:09:29.345Z,979.98
2018-09-13T12:10:29.260Z,979.94
2018-09-13T12:11:29.199Z,979.89
2018-09-13T12:12:29.141Z,979.88
2018-09-13T12:13:29.076Z,979.87
2018-09-13T12:14:29.020Z,979.90
2018-09-13T12:15:28.955Z,979.82
2018-09-13T12:16:28.897Z,979.81
2018-09-13T12:17:28.835Z,979.81
2018-09-13T12:18:28.803Z,979.83
2018-09-13T12:19:28.716Z,979.79
2018-09-13T12:20:28.657Z,979.79
2018-09-13T12:21:28.590Z,979.85
2018-09-13T12:22:28.576Z,979.86
2018-09-13T12:23:28.725Z,979.84
2018-09-13T12:24:28.411Z,979.81
2018-09-13T12:25:28.348Z,979.87
2018-09-13T12:26:28.288Z,979.87
2018-09-13T12:27:28.247Z,979.82
2018-09-13T12:28:28.181Z,979.80
2018-09-13T12:29:28.110Z,979.80
2018-09-13T12:30:28.051Z,979.75
2018-09-13T12:31:27.992Z,979.73
2018-09-13T12:32:27.952Z,979.70
2018-09-13T12:33:27.882Z,979.70
2018-09-13T12:34:27.818Z,979.69
2018-09-13T12:35:27.762Z,979.68
2018-09-13T12:36:27.708Z,979.70
2018-09-13T12:37:27.652Z,979.68
2018-09-13T12:38:27.598Z,979.67
2018-09-13T12:39:27.537Z,979.60
2018-09-13T12:40:27.483Z,979.58
2018-09-13T12:41:27.423Z,979.56
2018-09-13T12:42:27.367Z,979.58
2018-09-13T12:43:27.312Z,979.54
2018-09-13T12:44:27.258Z,979.51
2018-09-13T12:45:27.203Z,979.51